Pacific Dawn — 2AGH7 — position and weather

sailwx.info

Track history (hours):
 
Tides and Currents Weather Stations Pressure Air Temp Water Temp Dewpoint Dewpoint Depression Visibility Wind Speed Wind Dir Waves Ship Positions

Pacific Dawn

Last reported at 2019-Feb-23 05:00 UTC. Time now 2019-Feb-23 17:58 UTC.
Position S 27°42' E 165°18'.

Length 245 m; draft 8.3 m.

Type: Passenger vessel. MMSI: 235059368.

Wind from 350 at 21 knots

Barometer 998.9 mb
Air temperature 26.0 ° C
Visibility: greater than 10.8 NM
Dewpoint 21.5 ° C
Water temperature 26.0 ° C

Date/timePositionNaut miles runAvg speedWind from/ knotsBaromVisibWave heightAir tempDewpointWater temp
2019-Feb-23 05:00S 27°42' E 165°18'18815.7 350 / 21998.910.8 26.021.526.0
2019-Feb-22 17:00S 24°36' E 165°48'386 8.2 350 / 211001.310.8 25.025.026.0
2019-Feb-20 18:00S 18°18' E 164°24'11519.1 350 / 37994.610.8 26.026.027.5
2019-Feb-20 12:00S 18°06' E 166°24'94 5.0 360 / 40998.310.8 26.024.627.5
2019-Feb-19 17:00S 18°30' E 168°00'243 9.6 010 / 22997.310.8 28.023.728.0
2019-Feb-18 15:30S 22°24' E 166°47'816.5
2019-Feb-18 15:00S 22°25' E 166°38'816.8
2019-Feb-18 14:30S 22°29' E 166°31'713.9
2019-Feb-18 14:00S 22°32' E 166°24'815.3
2019-Feb-18 13:30S 22°34' E 166°16'817.0
2019-Feb-18 13:00S 22°37' E 166°07'917.2
2019-Feb-18 12:30S 22°40' E 165°58'2113.7
2019-Feb-18 11:00S 22°42' E 165°36'5317.6 120 / 40995.7 5.4 27.024.126.0
2019-Feb-18 08:00S 23°00' E 164°42'16318.1 130 / 40998.2 26.021.525.0
2019-Feb-17 23:00S 23°54' E 161°54'9816.3 140 / 35999.2 5.4 25.023.525.5
2019-Feb-17 17:00S 24°24' E 160°12'40016.9 120 / 40998.610.8 25.023.526.0
2019-Feb-16 17:16S 26°40' E 153°15'413.8
2019-Feb-16 16:57S 26°41' E 153°10'712.4
2019-Feb-16 16:24S 26°48' E 153°11'512.7
2019-Feb-16 16:00S 26°53' E 153°10'816.9
2019-Feb-16 15:30S 27°00' E 153°14'816.1
2019-Feb-16 15:00S 27°07' E 153°20'816.2
2019-Feb-16 14:30S 27°15' E 153°19'816.0
2019-Feb-16 14:00S 27°20' E 153°12'510.9
2019-Feb-16 13:30S 27°24' E 153°09'4 7.4
2019-Feb-16 13:00S 27°27' E 153°06'1 2.9
2019-Feb-16 12:30S 27°26' E 153°04'0 0.0
2019-Feb-16 12:00S 27°26' E 153°04'0 0.0
2019-Feb-16 11:30S 27°26' E 153°04'0 0.0
2019-Feb-16 10:57S 27°26' E 153°04'0 0.0
2019-Feb-16 10:27S 27°26' E 153°04'0 0.0
2019-Feb-16 10:00S 27°26' E 153°04'0 0.0
2019-Feb-16 09:27S 27°26' E 153°04'0 0.0
2019-Feb-16 09:00S 27°26' E 153°04'0 0.0
2019-Feb-16 08:30S 27°26' E 153°04'0 0.0
2019-Feb-16 08:00S 27°26' E 153°04'0 0.0
2019-Feb-16 07:30S 27°26' E 153°04'0 0.0
2019-Feb-16 07:00S 27°26' E 153°04'0 0.0
2019-Feb-16 06:30S 27°26' E 153°04'0 0.0
2019-Feb-16 06:00S 27°26' E 153°04'0 0.0
2019-Feb-16 05:30S 27°26' E 153°04'0 0.0
2019-Feb-16 05:00S 27°26' E 153°04'0 0.0
2019-Feb-16 04:30S 27°26' E 153°04'0 0.0
2019-Feb-16 04:00S 27°26' E 153°04'0 0.0
2019-Feb-16 03:30S 27°26' E 153°04'0 0.0
2019-Feb-16 03:00S 27°26' E 153°04'0 0.0
2019-Feb-16 02:30S 27°26' E 153°04'0 0.0
2019-Feb-16 02:00S 27°26' E 153°04'0 0.0
2019-Feb-16 01:30S 27°26' E 153°04'0 0.0
2019-Feb-16 01:00S 27°26' E 153°04'0 0.0
2019-Feb-16 00:30S 27°26' E 153°04'0 0.0
2019-Feb-16 00:00S 27°26' E 153°04'0 0.0
2019-Feb-15 23:30S 27°26' E 153°04'0 0.0
2019-Feb-15 22:57S 27°26' E 153°04'0 0.0
2019-Feb-15 22:30S 27°26' E 153°04'0 0.0
2019-Feb-15 22:00S 27°26' E 153°04'0 0.0
2019-Feb-15 21:30S 27°26' E 153°04'0 0.0
2019-Feb-15 20:57S 27°26' E 153°04'0 0.0
2019-Feb-15 20:30S 27°26' E 153°04'0 0.0
2019-Feb-15 20:00S 27°26' E 153°04'0 0.0
2019-Feb-15 19:30S 27°26' E 153°04'3 5.6
2019-Feb-15 19:00S 27°26' E 153°07'4 7.3
2019-Feb-15 18:30S 27°23' E 153°10'611.6
2019-Feb-15 18:00S 27°18' E 153°13'816.4
2019-Feb-15 17:30S 27°13' E 153°20'816.8
2019-Feb-15 17:00S 27°05' E 153°19'815.8
2019-Feb-15 16:30S 26°58' E 153°14'816.4
2019-Feb-15 16:00S 26°51' E 153°09'9 9.5
2019-Feb-15 15:02S 26°42' E 153°11'0 7.6
2019-Feb-15 14:58S 26°42' E 153°11'25314.1
2019-Feb-14 21:00S 22°42' E 151°42'5317.7 140 / 151011.410.8 27.021.028.0
2019-Feb-14 18:00S 22°06' E 151°00'8614.4 130 / 151006.410.8 27.021.028.0
2019-Feb-14 12:00S 21°00' E 150°00'78 2.8 070 / 251006.910.8 26.023.828.5
2019-Feb-13 08:00S 22°00' E 150°54'   040 / 121004.210.8 28.023.727.0
Track history (hours):
 
Tides and Currents Weather Stations Pressure Air Temp Water Temp Dewpoint Dewpoint Depression Visibility Wind Speed Wind Dir Waves Ship Positions

Pacific Dawn

Last reported at 2019-Feb-23 05:00 UTC. Time now 2019-Feb-23 17:58 UTC.
Position S 27°42' E 165°18'.

Length 245 m; draft 8.3 m.

Type: Passenger vessel. MMSI: 235059368.

Wind from 350 at 21 knots

Barometer 998.9 mb
Air temperature 26.0 ° C
Visibility: greater than 10.8 NM
Dewpoint 21.5 ° C
Water temperature 26.0 ° C

Date/timePositionNaut miles runAvg speedWind from/ knotsBaromVisibWave heightAir tempDewpointWater temp
2019-Feb-23 05:00S 27°42' E 165°18'18815.7 350 / 21998.910.8 26.021.526.0
2019-Feb-22 17:00S 24°36' E 165°48'386 8.2 350 / 211001.310.8 25.025.026.0
2019-Feb-20 18:00S 18°18' E 164°24'11519.1 350 / 37994.610.8 26.026.027.5
2019-Feb-20 12:00S 18°06' E 166°24'94 5.0 360 / 40998.310.8 26.024.627.5
2019-Feb-19 17:00S 18°30' E 168°00'243 9.6 010 / 22997.310.8 28.023.728.0
2019-Feb-18 15:30S 22°24' E 166°47'816.5
2019-Feb-18 15:00S 22°25' E 166°38'816.8
2019-Feb-18 14:30S 22°29' E 166°31'713.9
2019-Feb-18 14:00S 22°32' E 166°24'815.3
2019-Feb-18 13:30S 22°34' E 166°16'817.0
2019-Feb-18 13:00S 22°37' E 166°07'917.2
2019-Feb-18 12:30S 22°40' E 165°58'2113.7
2019-Feb-18 11:00S 22°42' E 165°36'5317.6 120 / 40995.7 5.4 27.024.126.0
2019-Feb-18 08:00S 23°00' E 164°42'16318.1 130 / 40998.2 26.021.525.0
2019-Feb-17 23:00S 23°54' E 161°54'9816.3 140 / 35999.2 5.4 25.023.525.5
2019-Feb-17 17:00S 24°24' E 160°12'40016.9 120 / 40998.610.8 25.023.526.0
2019-Feb-16 17:16S 26°40' E 153°15'413.8
2019-Feb-16 16:57S 26°41' E 153°10'712.4
2019-Feb-16 16:24S 26°48' E 153°11'512.7
2019-Feb-16 16:00S 26°53' E 153°10'816.9
2019-Feb-16 15:30S 27°00' E 153°14'816.1
2019-Feb-16 15:00S 27°07' E 153°20'816.2
2019-Feb-16 14:30S 27°15' E 153°19'816.0
2019-Feb-16 14:00S 27°20' E 153°12'510.9
2019-Feb-16 13:30S 27°24' E 153°09'4 7.4
2019-Feb-16 13:00S 27°27' E 153°06'1 2.9
2019-Feb-16 12:30S 27°26' E 153°04'0 0.0
2019-Feb-16 12:00S 27°26' E 153°04'0 0.0
2019-Feb-16 11:30S 27°26' E 153°04'0 0.0
2019-Feb-16 10:57S 27°26' E 153°04'0 0.0
2019-Feb-16 10:27S 27°26' E 153°04'0 0.0
2019-Feb-16 10:00S 27°26' E 153°04'0 0.0
2019-Feb-16 09:27S 27°26' E 153°04'0 0.0
2019-Feb-16 09:00S 27°26' E 153°04'0 0.0
2019-Feb-16 08:30S 27°26' E 153°04'0 0.0
2019-Feb-16 08:00S 27°26' E 153°04'0 0.0
2019-Feb-16 07:30S 27°26' E 153°04'0 0.0
2019-Feb-16 07:00S 27°26' E 153°04'0 0.0
2019-Feb-16 06:30S 27°26' E 153°04'0 0.0
2019-Feb-16 06:00S 27°26' E 153°04'0 0.0
2019-Feb-16 05:30S 27°26' E 153°04'0 0.0
2019-Feb-16 05:00S 27°26' E 153°04'0 0.0
2019-Feb-16 04:30S 27°26' E 153°04'0 0.0
2019-Feb-16 04:00S 27°26' E 153°04'0 0.0
2019-Feb-16 03:30S 27°26' E 153°04'0 0.0
2019-Feb-16 03:00S 27°26' E 153°04'0 0.0
2019-Feb-16 02:30S 27°26' E 153°04'0 0.0
2019-Feb-16 02:00S 27°26' E 153°04'0 0.0
2019-Feb-16 01:30S 27°26' E 153°04'0 0.0
2019-Feb-16 01:00S 27°26' E 153°04'0 0.0
2019-Feb-16 00:30S 27°26' E 153°04'0 0.0
2019-Feb-16 00:00S 27°26' E 153°04'0 0.0
2019-Feb-15 23:30S 27°26' E 153°04'0 0.0
2019-Feb-15 22:57S 27°26' E 153°04'0 0.0
2019-Feb-15 22:30S 27°26' E 153°04'0 0.0
2019-Feb-15 22:00S 27°26' E 153°04'0 0.0
2019-Feb-15 21:30S 27°26' E 153°04'0 0.0
2019-Feb-15 20:57S 27°26' E 153°04'0 0.0
2019-Feb-15 20:30S 27°26' E 153°04'0 0.0
2019-Feb-15 20:00S 27°26' E 153°04'0 0.0
2019-Feb-15 19:30S 27°26' E 153°04'3 5.6
2019-Feb-15 19:00S 27°26' E 153°07'4 7.3
2019-Feb-15 18:30S 27°23' E 153°10'611.6
2019-Feb-15 18:00S 27°18' E 153°13'816.4
2019-Feb-15 17:30S 27°13' E 153°20'816.8
2019-Feb-15 17:00S 27°05' E 153°19'815.8
2019-Feb-15 16:30S 26°58' E 153°14'816.4
2019-Feb-15 16:00S 26°51' E 153°09'9 9.5
2019-Feb-15 15:02S 26°42' E 153°11'0 7.6
2019-Feb-15 14:58S 26°42' E 153°11'25314.1
2019-Feb-14 21:00S 22°42' E 151°42'5317.7 140 / 151011.410.8 27.021.028.0
2019-Feb-14 18:00S 22°06' E 151°00'8614.4 130 / 151006.410.8 27.021.028.0
2019-Feb-14 12:00S 21°00' E 150°00'78 2.8 070 / 251006.910.8 26.023.828.5
2019-Feb-13 08:00S 22°00' E 150°54'   040 / 121004.210.8 28.023.727.0

Dump ship's entire track history